KHSP/HSP METAR and TAF weather

Enter ICAO airport designator
Station Type Date Time Source
KHSP METAR 2022/05/25 00:15 UTC NOAA

KHSP 250015Z AUTO 10006KT M1/4SM -RA OVC001 12/12 A3028 RMK AO1 T01180118


Station Type Date Time Source
KHSP Decoded METAR 2022/05/25 00:15 UTC NOAA

Hot Springs / Ingalls, VA, United States (KHSP) 37-57N 079-50W
May 24, 2022 - 08:15 PM EDT / 2022.05.25 0015 UTC
Wind: from the E (100 degrees) at 7 MPH (6 KT):0
Visibility: less than 1/4 mile(s):1
Sky conditions: overcast
Weather: light rain
Temperature: 53.2 F (11.8 C)
Dew Point: 53.2 F (11.8 C)
Relative Humidity: 100%
Pressure (altimeter): 30.28 in. Hg (1025 hPa)
ob: KHSP 250015Z AUTO 10006KT M1/4SM -RA OVC001 12/12 A3028 RMK AO1 T01180118
cycle: 0

Station Type Date Time Source
KHSP TAF UTC NOAA

Error!

Example: see airport list